sensor_id;sensor_type;location;lat;lon;timestamp;P1;durP1;ratioP1;P2;durP2;ratioP2
4102;SDS011;2065;49.790;9.620;2023-04-25T00:01:54;11.43;;;4.30;;
4102;SDS011;2065;49.790;9.620;2023-04-25T00:04:22;4.60;;;3.93;;
4102;SDS011;2065;49.790;9.620;2023-04-25T00:06:49;4.83;;;4.33;;
4102;SDS011;2065;49.790;9.620;2023-04-25T00:09:17;5.87;;;4.20;;
4102;SDS011;2065;49.790;9.620;2023-04-25T00:11:44;6.87;;;4.03;;
4102;SDS011;2065;49.790;9.620;2023-04-25T00:14:13;6.30;;;3.90;;
4102;SDS011;2065;49.790;9.620;2023-04-25T00:16:40;6.27;;;4.30;;
4102;SDS011;2065;49.790;9.620;2023-04-25T00:19:09;6.30;;;3.80;;
4102;SDS011;2065;49.790;9.620;2023-04-25T00:21:36;6.67;;;5.13;;
4102;SDS011;2065;49.790;9.620;2023-04-25T00:24:05;5.80;;;5.23;;
4102;SDS011;2065;49.790;9.620;2023-04-25T00:26:33;6.10;;;4.73;;
4102;SDS011;2065;49.790;9.620;2023-04-25T00:29:00;5.70;;;4.50;;
4102;SDS011;2065;49.790;9.620;2023-04-25T00:31:29;5.80;;;4.40;;
4102;SDS011;2065;49.790;9.620;2023-04-25T00:33:56;7.47;;;4.20;;
4102;SDS011;2065;49.790;9.620;2023-04-25T00:36:23;3.43;;;3.13;;
4102;SDS011;2065;49.790;9.620;2023-04-25T00:38:51;5.77;;;3.60;;
4102;SDS011;2065;49.790;9.620;2023-04-25T00:41:19;5.53;;;4.40;;
4102;SDS011;2065;49.790;9.620;2023-04-25T00:43:47;7.30;;;4.90;;
4102;SDS011;2065;49.790;9.620;2023-04-25T00:46:14;5.20;;;4.17;;
4102;SDS011;2065;49.790;9.620;2023-04-25T00:48:43;5.30;;;4.23;;
4102;SDS011;2065;49.790;9.620;2023-04-25T00:51:11;8.97;;;4.97;;
4102;SDS011;2065;49.790;9.620;2023-04-25T00:53:42;8.73;;;4.13;;
4102;SDS011;2065;49.790;9.620;2023-04-25T00:56:09;5.07;;;4.00;;
4102;SDS011;2065;49.790;9.620;2023-04-25T00:58:37;3.93;;;3.50;;
4102;SDS011;2065;49.790;9.620;2023-04-25T01:01:04;5.17;;;3.20;;
4102;SDS011;2065;49.790;9.620;2023-04-25T01:03:33;4.60;;;3.80;;
4102;SDS011;2065;49.790;9.620;2023-04-25T01:06:07;3.50;;;2.80;;
4102;SDS011;2065;49.790;9.620;2023-04-25T01:08:36;8.70;;;4.20;;
4102;SDS011;2065;49.790;9.620;2023-04-25T01:11:04;5.10;;;3.63;;
4102;SDS011;2065;49.790;9.620;2023-04-25T01:13:32;3.93;;;3.37;;
4102;SDS011;2065;49.790;9.620;2023-04-25T01:15:59;4.20;;;3.30;;
4102;SDS011;2065;49.790;9.620;2023-04-25T01:18:27;4.73;;;3.30;;
4102;SDS011;2065;49.790;9.620;2023-04-25T01:20:54;4.47;;;3.40;;
4102;SDS011;2065;49.790;9.620;2023-04-25T01:23:23;2.80;;;2.60;;
4102;SDS011;2065;49.790;9.620;2023-04-25T01:25:51;2.87;;;2.60;;
4102;SDS011;2065;49.790;9.620;2023-04-25T01:28:18;3.47;;;3.17;;
4102;SDS011;2065;49.790;9.620;2023-04-25T01:30:47;3.30;;;2.67;;
4102;SDS011;2065;49.790;9.620;2023-04-25T01:33:14;3.23;;;2.93;;
4102;SDS011;2065;49.790;9.620;2023-04-25T01:35:42;2.90;;;2.60;;
4102;SDS011;2065;49.790;9.620;2023-04-25T01:38:11;3.20;;;2.30;;
4102;SDS011;2065;49.790;9.620;2023-04-25T01:40:40;2.43;;;2.17;;
4102;SDS011;2065;49.790;9.620;2023-04-25T01:43:07;3.60;;;2.20;;
4102;SDS011;2065;49.790;9.620;2023-04-25T01:45:36;1.80;;;1.70;;
4102;SDS011;2065;49.790;9.620;2023-04-25T01:48:05;2.43;;;2.10;;
4102;SDS011;2065;49.790;9.620;2023-04-25T01:50:32;2.07;;;1.90;;
4102;SDS011;2065;49.790;9.620;2023-04-25T01:53:00;2.83;;;2.10;;
4102;SDS011;2065;49.790;9.620;2023-04-25T01:55:27;2.33;;;2.13;;
4102;SDS011;2065;49.790;9.620;2023-04-25T01:58:02;2.40;;;2.07;;
4102;SDS011;2065;49.790;9.620;2023-04-25T02:00:54;2.30;;;2.10;;
4102;SDS011;2065;49.790;9.620;2023-04-25T02:03:23;2.00;;;1.80;;
4102;SDS011;2065;49.790;9.620;2023-04-25T02:05:51;2.43;;;2.23;;
4102;SDS011;2065;49.790;9.620;2023-04-25T02:08:18;2.93;;;2.30;;
4102;SDS011;2065;49.790;9.620;2023-04-25T02:10:45;2.43;;;2.20;;
4102;SDS011;2065;49.790;9.620;2023-04-25T02:13:20;2.03;;;1.83;;
4102;SDS011;2065;49.790;9.620;2023-04-25T02:15:59;3.43;;;2.13;;
4102;SDS011;2065;49.790;9.620;2023-04-25T02:18:26;1.97;;;1.70;;
4102;SDS011;2065;49.790;9.620;2023-04-25T02:20:53;2.17;;;1.97;;
4102;SDS011;2065;49.790;9.620;2023-04-25T02:23:20;3.20;;;2.40;;
4102;SDS011;2065;49.790;9.620;2023-04-25T02:25:48;3.00;;;2.30;;
4102;SDS011;2065;49.790;9.620;2023-04-25T02:28:15;3.17;;;2.40;;
4102;SDS011;2065;49.790;9.620;2023-04-25T02:30:44;3.13;;;2.20;;
4102;SDS011;2065;49.790;9.620;2023-04-25T02:33:11;3.97;;;2.37;;
4102;SDS011;2065;49.790;9.620;2023-04-25T02:35:38;3.90;;;2.67;;
4102;SDS011;2065;49.790;9.620;2023-04-25T02:38:06;3.30;;;3.00;;
4102;SDS011;2065;49.790;9.620;2023-04-25T02:40:33;2.50;;;2.30;;
4102;SDS011;2065;49.790;9.620;2023-04-25T02:43:00;3.53;;;2.90;;
4102;SDS011;2065;49.790;9.620;2023-04-25T02:45:27;3.43;;;2.43;;
4102;SDS011;2065;49.790;9.620;2023-04-25T02:47:56;5.53;;;2.80;;
4102;SDS011;2065;49.790;9.620;2023-04-25T02:50:23;4.97;;;3.50;;
4102;SDS011;2065;49.790;9.620;2023-04-25T02:52:50;3.23;;;2.90;;
4102;SDS011;2065;49.790;9.620;2023-04-25T02:55:23;4.93;;;2.77;;
4102;SDS011;2065;49.790;9.620;2023-04-25T02:57:51;5.13;;;3.10;;
4102;SDS011;2065;49.790;9.620;2023-04-25T03:00:31;4.00;;;3.50;;
4102;SDS011;2065;49.790;9.620;2023-04-25T03:03:00;3.60;;;3.17;;
4102;SDS011;2065;49.790;9.620;2023-04-25T03:05:27;7.13;;;3.10;;
4102;SDS011;2065;49.790;9.620;2023-04-25T03:07:54;4.83;;;3.00;;
4102;SDS011;2065;49.790;9.620;2023-04-25T03:10:21;4.30;;;3.40;;
4102;SDS011;2065;49.790;9.620;2023-04-25T03:12:48;3.17;;;2.80;;
4102;SDS011;2065;49.790;9.620;2023-04-25T03:15:15;3.17;;;2.87;;
4102;SDS011;2065;49.790;9.620;2023-04-25T03:17:43;3.40;;;2.70;;
4102;SDS011;2065;49.790;9.620;2023-04-25T03:20:11;5.90;;;2.80;;
4102;SDS011;2065;49.790;9.620;2023-04-25T03:22:39;4.03;;;3.07;;
4102;SDS011;2065;49.790;9.620;2023-04-25T03:25:06;3.40;;;2.90;;
4102;SDS011;2065;49.790;9.620;2023-04-25T03:27:34;4.13;;;3.50;;
4102;SDS011;2065;49.790;9.620;2023-04-25T03:30:01;4.23;;;2.90;;
4102;SDS011;2065;49.790;9.620;2023-04-25T03:32:30;5.53;;;3.20;;
4102;SDS011;2065;49.790;9.620;2023-04-25T03:34:57;4.53;;;3.10;;
4102;SDS011;2065;49.790;9.620;2023-04-25T03:37:27;3.73;;;3.30;;
4102;SDS011;2065;49.790;9.620;2023-04-25T03:39:54;4.90;;;3.00;;
4102;SDS011;2065;49.790;9.620;2023-04-25T03:42:25;3.43;;;3.13;;
4102;SDS011;2065;49.790;9.620;2023-04-25T03:44:52;4.03;;;3.70;;
4102;SDS011;2065;49.790;9.620;2023-04-25T03:47:20;4.70;;;3.27;;
4102;SDS011;2065;49.790;9.620;2023-04-25T03:49:48;6.53;;;4.70;;
4102;SDS011;2065;49.790;9.620;2023-04-25T03:52:18;5.70;;;3.30;;
4102;SDS011;2065;49.790;9.620;2023-04-25T03:54:47;3.70;;;3.17;;
4102;SDS011;2065;49.790;9.620;2023-04-25T03:57:18;8.20;;;3.57;;
4102;SDS011;2065;49.790;9.620;2023-04-25T03:59:45;7.30;;;3.67;;
4102;SDS011;2065;49.790;9.620;2023-04-25T04:02:13;6.20;;;4.33;;
4102;SDS011;2065;49.790;9.620;2023-04-25T04:04:41;5.60;;;3.50;;
4102;SDS011;2065;49.790;9.620;2023-04-25T04:07:09;4.13;;;3.47;;
4102;SDS011;2065;49.790;9.620;2023-04-25T04:09:39;4.47;;;3.40;;
4102;SDS011;2065;49.790;9.620;2023-04-25T04:12:13;4.90;;;4.40;;
4102;SDS011;2065;49.790;9.620;2023-04-25T04:14:41;4.60;;;3.87;;
4102;SDS011;2065;49.790;9.620;2023-04-25T04:17:08;4.77;;;3.90;;
4102;SDS011;2065;49.790;9.620;2023-04-25T04:19:35;6.60;;;4.63;;
4102;SDS011;2065;49.790;9.620;2023-04-25T04:22:08;6.20;;;4.47;;
4102;SDS011;2065;49.790;9.620;2023-04-25T04:24:35;7.37;;;5.17;;
4102;SDS011;2065;49.790;9.620;2023-04-25T04:27:05;7.60;;;5.40;;
4102;SDS011;2065;49.790;9.620;2023-04-25T04:29:37;10.00;;;6.33;;
4102;SDS011;2065;49.790;9.620;2023-04-25T04:32:18;5.10;;;4.60;;
4102;SDS011;2065;49.790;9.620;2023-04-25T04:34:45;10.77;;;8.13;;
4102;SDS011;2065;49.790;9.620;2023-04-25T04:37:15;12.40;;;7.47;;
4102;SDS011;2065;49.790;9.620;2023-04-25T04:39:43;17.90;;;12.97;;
4102;SDS011;2065;49.790;9.620;2023-04-25T04:42:21;10.30;;;7.30;;
4102;SDS011;2065;49.790;9.620;2023-04-25T04:45:14;9.03;;;6.93;;
4102;SDS011;2065;49.790;9.620;2023-04-25T04:47:42;9.47;;;6.63;;
4102;SDS011;2065;49.790;9.620;2023-04-25T04:50:33;5.90;;;5.03;;
4102;SDS011;2065;49.790;9.620;2023-04-25T04:53:19;12.87;;;11.57;;
4102;SDS011;2065;49.790;9.620;2023-04-25T04:56:05;7.00;;;6.30;;
4102;SDS011;2065;49.790;9.620;2023-04-25T04:58:55;25.40;;;19.57;;
4102;SDS011;2065;49.790;9.620;2023-04-25T05:01:49;13.33;;;6.33;;
4102;SDS011;2065;49.790;9.620;2023-04-25T05:04:24;7.73;;;5.20;;
4102;SDS011;2065;49.790;9.620;2023-04-25T05:07:02;9.07;;;6.90;;
4102;SDS011;2065;49.790;9.620;2023-04-25T05:09:42;9.80;;;7.50;;
4102;SDS011;2065;49.790;9.620;2023-04-25T05:12:27;10.50;;;7.07;;
4102;SDS011;2065;49.790;9.620;2023-04-25T05:15:14;11.70;;;8.60;;
4102;SDS011;2065;49.790;9.620;2023-04-25T05:17:59;9.00;;;7.53;;
4102;SDS011;2065;49.790;9.620;2023-04-25T05:20:52;8.07;;;6.93;;
4102;SDS011;2065;49.790;9.620;2023-04-25T05:23:19;11.40;;;7.23;;
4102;SDS011;2065;49.790;9.620;2023-04-25T05:26:04;7.90;;;6.20;;
4102;SDS011;2065;49.790;9.620;2023-04-25T05:28:49;9.73;;;6.93;;
4102;SDS011;2065;49.790;9.620;2023-04-25T05:31:36;11.80;;;7.30;;
4102;SDS011;2065;49.790;9.620;2023-04-25T05:34:14;8.87;;;6.03;;
4102;SDS011;2065;49.790;9.620;2023-04-25T05:36:56;12.57;;;7.47;;
4102;SDS011;2065;49.790;9.620;2023-04-25T05:39:24;8.93;;;6.87;;
4102;SDS011;2065;49.790;9.620;2023-04-25T05:41:51;10.03;;;6.13;;
4102;SDS011;2065;49.790;9.620;2023-04-25T05:44:45;10.13;;;6.70;;
4102;SDS011;2065;49.790;9.620;2023-04-25T05:47:35;8.03;;;6.37;;
4102;SDS011;2065;49.790;9.620;2023-04-25T05:50:08;10.97;;;6.43;;
4102;SDS011;2065;49.790;9.620;2023-04-25T05:53:01;11.40;;;6.13;;
4102;SDS011;2065;49.790;9.620;2023-04-25T05:55:38;10.07;;;7.20;;
4102;SDS011;2065;49.790;9.620;2023-04-25T05:58:18;9.97;;;6.87;;
4102;SDS011;2065;49.790;9.620;2023-04-25T06:00:46;9.17;;;6.93;;
4102;SDS011;2065;49.790;9.620;2023-04-25T06:03:13;9.40;;;6.97;;
4102;SDS011;2065;49.790;9.620;2023-04-25T06:05:42;12.90;;;7.47;;
4102;SDS011;2065;49.790;9.620;2023-04-25T06:08:09;11.07;;;6.73;;
4102;SDS011;2065;49.790;9.620;2023-04-25T06:10:37;13.03;;;7.40;;
4102;SDS011;2065;49.790;9.620;2023-04-25T06:13:04;10.50;;;6.80;;
4102;SDS011;2065;49.790;9.620;2023-04-25T06:15:34;17.27;;;8.07;;
4102;SDS011;2065;49.790;9.620;2023-04-25T06:18:01;12.20;;;8.50;;
4102;SDS011;2065;49.790;9.620;2023-04-25T06:20:28;14.10;;;8.10;;
4102;SDS011;2065;49.790;9.620;2023-04-25T06:23:00;11.80;;;7.53;;
4102;SDS011;2065;49.790;9.620;2023-04-25T06:25:44;10.23;;;7.50;;
4102;SDS011;2065;49.790;9.620;2023-04-25T06:28:12;9.00;;;7.23;;
4102;SDS011;2065;49.790;9.620;2023-04-25T06:30:40;7.57;;;6.50;;
4102;SDS011;2065;49.790;9.620;2023-04-25T06:33:11;9.97;;;6.77;;
4102;SDS011;2065;49.790;9.620;2023-04-25T06:35:42;15.63;;;5.17;;
4102;SDS011;2065;49.790;9.620;2023-04-25T06:38:13;7.93;;;5.47;;
4102;SDS011;2065;49.790;9.620;2023-04-25T06:40:45;7.00;;;5.27;;
4102;SDS011;2065;49.790;9.620;2023-04-25T06:43:13;9.23;;;5.90;;
4102;SDS011;2065;49.790;9.620;2023-04-25T06:45:55;7.53;;;5.20;;
4102;SDS011;2065;49.790;9.620;2023-04-25T06:48:24;9.20;;;5.50;;
4102;SDS011;2065;49.790;9.620;2023-04-25T06:50:53;8.47;;;5.00;;
4102;SDS011;2065;49.790;9.620;2023-04-25T06:53:23;9.00;;;5.43;;
4102;SDS011;2065;49.790;9.620;2023-04-25T06:55:57;7.57;;;6.40;;
4102;SDS011;2065;49.790;9.620;2023-04-25T06:58:29;9.30;;;5.57;;
4102;SDS011;2065;49.790;9.620;2023-04-25T07:01:07;9.47;;;5.10;;
4102;SDS011;2065;49.790;9.620;2023-04-25T07:03:35;10.90;;;4.60;;
4102;SDS011;2065;49.790;9.620;2023-04-25T07:06:07;6.87;;;4.40;;
4102;SDS011;2065;49.790;9.620;2023-04-25T07:08:36;6.50;;;5.00;;
4102;SDS011;2065;49.790;9.620;2023-04-25T07:11:03;5.70;;;4.80;;
4102;SDS011;2065;49.790;9.620;2023-04-25T07:13:30;8.03;;;4.53;;
4102;SDS011;2065;49.790;9.620;2023-04-25T07:15:57;6.33;;;4.80;;
4102;SDS011;2065;49.790;9.620;2023-04-25T07:18:27;8.73;;;4.70;;
4102;SDS011;2065;49.790;9.620;2023-04-25T07:20:55;5.60;;;4.07;;
4102;SDS011;2065;49.790;9.620;2023-04-25T07:23:22;9.27;;;4.10;;
4102;SDS011;2065;49.790;9.620;2023-04-25T07:25:51;8.07;;;3.77;;
4102;SDS011;2065;49.790;9.620;2023-04-25T07:28:21;5.27;;;3.23;;
4102;SDS011;2065;49.790;9.620;2023-04-25T07:30:48;7.03;;;3.73;;
4102;SDS011;2065;49.790;9.620;2023-04-25T07:33:15;8.30;;;3.90;;
4102;SDS011;2065;49.790;9.620;2023-04-25T07:35:42;5.57;;;3.30;;
4102;SDS011;2065;49.790;9.620;2023-04-25T07:38:10;4.87;;;3.07;;
4102;SDS011;2065;49.790;9.620;2023-04-25T07:40:37;4.00;;;3.20;;
4102;SDS011;2065;49.790;9.620;2023-04-25T07:43:08;5.50;;;2.90;;
4102;SDS011;2065;49.790;9.620;2023-04-25T07:45:53;2.90;;;2.60;;
4102;SDS011;2065;49.790;9.620;2023-04-25T07:48:21;7.23;;;3.50;;
4102;SDS011;2065;49.790;9.620;2023-04-25T07:50:51;5.10;;;3.67;;
4102;SDS011;2065;49.790;9.620;2023-04-25T07:53:18;5.43;;;3.03;;
4102;SDS011;2065;49.790;9.620;2023-04-25T07:56:00;4.13;;;3.20;;
4102;SDS011;2065;49.790;9.620;2023-04-25T07:58:32;4.43;;;2.90;;
4102;SDS011;2065;49.790;9.620;2023-04-25T08:01:01;3.33;;;2.40;;
4102;SDS011;2065;49.790;9.620;2023-04-25T08:03:34;2.50;;;2.30;;
4102;SDS011;2065;49.790;9.620;2023-04-25T08:06:05;3.53;;;2.57;;
4102;SDS011;2065;49.790;9.620;2023-04-25T08:08:37;3.17;;;2.67;;
4102;SDS011;2065;49.790;9.620;2023-04-25T08:11:08;8.77;;;3.57;;
4102;SDS011;2065;49.790;9.620;2023-04-25T08:13:37;4.27;;;2.80;;
4102;SDS011;2065;49.790;9.620;2023-04-25T08:16:07;2.87;;;2.67;;
4102;SDS011;2065;49.790;9.620;2023-04-25T08:18:34;5.23;;;3.00;;
4102;SDS011;2065;49.790;9.620;2023-04-25T08:21:02;3.87;;;2.77;;
4102;SDS011;2065;49.790;9.620;2023-04-25T08:23:29;3.20;;;2.73;;
4102;SDS011;2065;49.790;9.620;2023-04-25T08:26:02;2.27;;;2.07;;
4102;SDS011;2065;49.790;9.620;2023-04-25T08:28:32;2.40;;;1.90;;
4102;SDS011;2065;49.790;9.620;2023-04-25T08:31:02;3.67;;;2.27;;
4102;SDS011;2065;49.790;9.620;2023-04-25T08:33:37;5.33;;;2.77;;
4102;SDS011;2065;49.790;9.620;2023-04-25T08:36:27;2.57;;;2.20;;
4102;SDS011;2065;49.790;9.620;2023-04-25T08:38:54;2.40;;;2.20;;
4102;SDS011;2065;49.790;9.620;2023-04-25T08:41:21;5.30;;;2.37;;
4102;SDS011;2065;49.790;9.620;2023-04-25T08:43:49;5.23;;;2.57;;
4102;SDS011;2065;49.790;9.620;2023-04-25T08:46:19;3.23;;;2.00;;
4102;SDS011;2065;49.790;9.620;2023-04-25T08:49:15;4.33;;;2.70;;
4102;SDS011;2065;49.790;9.620;2023-04-25T08:51:44;10.00;;;2.93;;
4102;SDS011;2065;49.790;9.620;2023-04-25T08:54:14;2.50;;;2.30;;
4102;SDS011;2065;49.790;9.620;2023-04-25T08:56:44;3.97;;;2.47;;
4102;SDS011;2065;49.790;9.620;2023-04-25T08:59:13;4.50;;;2.50;;
4102;SDS011;2065;49.790;9.620;2023-04-25T09:01:44;2.23;;;1.90;;
4102;SDS011;2065;49.790;9.620;2023-04-25T09:04:11;4.03;;;2.93;;
4102;SDS011;2065;49.790;9.620;2023-04-25T09:06:39;3.60;;;2.53;;
4102;SDS011;2065;49.790;9.620;2023-04-25T09:09:07;2.60;;;1.97;;
4102;SDS011;2065;49.790;9.620;2023-04-25T09:11:36;3.80;;;2.40;;
4102;SDS011;2065;49.790;9.620;2023-04-25T09:14:11;4.13;;;2.00;;
4102;SDS011;2065;49.790;9.620;2023-04-25T09:17:00;3.43;;;2.43;;
4102;SDS011;2065;49.790;9.620;2023-04-25T09:19:50;3.20;;;1.97;;
4102;SDS011;2065;49.790;9.620;2023-04-25T09:22:23;3.60;;;2.20;;
4102;SDS011;2065;49.790;9.620;2023-04-25T09:24:51;3.37;;;2.50;;
4102;SDS011;2065;49.790;9.620;2023-04-25T09:27:21;6.90;;;2.40;;
4102;SDS011;2065;49.790;9.620;2023-04-25T09:29:57;3.27;;;2.60;;
4102;SDS011;2065;49.790;9.620;2023-04-25T09:32:27;2.83;;;2.27;;
4102;SDS011;2065;49.790;9.620;2023-04-25T09:34:56;6.10;;;2.40;;
4102;SDS011;2065;49.790;9.620;2023-04-25T09:37:27;6.20;;;3.03;;
4102;SDS011;2065;49.790;9.620;2023-04-25T09:40:13;3.33;;;3.03;;
4102;SDS011;2065;49.790;9.620;2023-04-25T09:42:54;4.07;;;2.53;;
4102;SDS011;2065;49.790;9.620;2023-04-25T09:45:23;5.13;;;2.50;;
4102;SDS011;2065;49.790;9.620;2023-04-25T09:47:52;3.40;;;2.10;;
4102;SDS011;2065;49.790;9.620;2023-04-25T09:50:26;4.60;;;2.40;;
4102;SDS011;2065;49.790;9.620;2023-04-25T09:53:02;13.30;;;7.47;;
4102;SDS011;2065;49.790;9.620;2023-04-25T09:55:46;3.53;;;2.90;;
4102;SDS011;2065;49.790;9.620;2023-04-25T09:58:14;4.40;;;2.53;;
4102;SDS011;2065;49.790;9.620;2023-04-25T10:00:41;4.50;;;2.70;;
4102;SDS011;2065;49.790;9.620;2023-04-25T10:03:23;3.93;;;2.77;;
4102;SDS011;2065;49.790;9.620;2023-04-25T10:06:12;3.90;;;2.37;;
4102;SDS011;2065;49.790;9.620;2023-04-25T10:08:45;4.27;;;2.90;;
4102;SDS011;2065;49.790;9.620;2023-04-25T10:11:17;4.50;;;2.70;;
4102;SDS011;2065;49.790;9.620;2023-04-25T10:13:45;5.07;;;3.60;;
4102;SDS011;2065;49.790;9.620;2023-04-25T10:16:13;2.83;;;2.50;;
4102;SDS011;2065;49.790;9.620;2023-04-25T10:18:42;6.23;;;2.70;;
4102;SDS011;2065;49.790;9.620;2023-04-25T10:21:09;9.60;;;2.53;;
4102;SDS011;2065;49.790;9.620;2023-04-25T10:23:37;3.73;;;2.67;;
4102;SDS011;2065;49.790;9.620;2023-04-25T10:26:04;3.47;;;2.97;;
4102;SDS011;2065;49.790;9.620;2023-04-25T10:31:23;3.83;;;2.60;;
4102;SDS011;2065;49.790;9.620;2023-04-25T10:33:52;2.73;;;2.53;;
4102;SDS011;2065;49.790;9.620;2023-04-25T10:36:21;3.70;;;2.50;;
4102;SDS011;2065;49.790;9.620;2023-04-25T10:38:49;3.77;;;2.60;;
4102;SDS011;2065;49.790;9.620;2023-04-25T10:41:17;6.80;;;2.93;;
4102;SDS011;2065;49.790;9.620;2023-04-25T10:43:45;3.27;;;2.37;;
4102;SDS011;2065;49.790;9.620;2023-04-25T10:46:13;3.40;;;2.50;;
4102;SDS011;2065;49.790;9.620;2023-04-25T10:48:49;3.53;;;2.27;;
4102;SDS011;2065;49.790;9.620;2023-04-25T10:51:20;3.83;;;2.60;;
4102;SDS011;2065;49.790;9.620;2023-04-25T10:53:56;5.40;;;2.30;;
4102;SDS011;2065;49.790;9.620;2023-04-25T10:56:25;4.10;;;2.60;;
4102;SDS011;2065;49.790;9.620;2023-04-25T10:59:07;3.07;;;2.10;;
4102;SDS011;2065;49.790;9.620;2023-04-25T11:01:36;7.43;;;2.30;;
4102;SDS011;2065;49.790;9.620;2023-04-25T11:04:05;4.90;;;2.20;;
4102;SDS011;2065;49.790;9.620;2023-04-25T11:06:37;5.57;;;2.63;;
4102;SDS011;2065;49.790;9.620;2023-04-25T11:09:13;3.03;;;2.60;;
4102;SDS011;2065;49.790;9.620;2023-04-25T11:11:41;2.97;;;2.60;;
4102;SDS011;2065;49.790;9.620;2023-04-25T11:14:08;3.53;;;2.37;;
4102;SDS011;2065;49.790;9.620;2023-04-25T11:16:35;2.87;;;2.57;;
4102;SDS011;2065;49.790;9.620;2023-04-25T11:19:02;2.83;;;2.53;;
4102;SDS011;2065;49.790;9.620;2023-04-25T11:21:30;3.17;;;2.57;;
4102;SDS011;2065;49.790;9.620;2023-04-25T11:23:59;4.17;;;2.67;;
4102;SDS011;2065;49.790;9.620;2023-04-25T11:26:26;4.10;;;2.40;;
4102;SDS011;2065;49.790;9.620;2023-04-25T11:28:56;3.53;;;2.60;;
4102;SDS011;2065;49.790;9.620;2023-04-25T11:31:25;4.37;;;2.90;;
4102;SDS011;2065;49.790;9.620;2023-04-25T11:33:52;3.53;;;2.50;;
4102;SDS011;2065;49.790;9.620;2023-04-25T11:36:20;4.03;;;2.90;;
4102;SDS011;2065;49.790;9.620;2023-04-25T11:38:49;4.37;;;2.90;;
4102;SDS011;2065;49.790;9.620;2023-04-25T11:41:18;3.00;;;2.70;;
4102;SDS011;2065;49.790;9.620;2023-04-25T11:43:45;4.67;;;3.50;;
4102;SDS011;2065;49.790;9.620;2023-04-25T11:46:12;3.03;;;2.73;;
4102;SDS011;2065;49.790;9.620;2023-04-25T11:48:39;5.83;;;3.27;;
4102;SDS011;2065;49.790;9.620;2023-04-25T11:51:07;5.73;;;3.07;;
4102;SDS011;2065;49.790;9.620;2023-04-25T11:53:34;4.47;;;3.17;;
4102;SDS011;2065;49.790;9.620;2023-04-25T11:56:01;4.80;;;3.37;;
4102;SDS011;2065;49.790;9.620;2023-04-25T12:01:28;4.67;;;3.37;;
4102;SDS011;2065;49.790;9.620;2023-04-25T12:03:57;5.30;;;3.37;;
4102;SDS011;2065;49.790;9.620;2023-04-25T12:06:28;3.83;;;3.20;;
4102;SDS011;2065;49.790;9.620;2023-04-25T12:09:01;5.10;;;3.00;;
4102;SDS011;2065;49.790;9.620;2023-04-25T12:11:29;6.27;;;3.10;;
4102;SDS011;2065;49.790;9.620;2023-04-25T12:14:02;2.93;;;2.60;;
4102;SDS011;2065;49.790;9.620;2023-04-25T12:16:39;4.40;;;2.73;;
4102;SDS011;2065;49.790;9.620;2023-04-25T12:19:07;3.77;;;2.90;;
4102;SDS011;2065;49.790;9.620;2023-04-25T12:21:34;4.63;;;3.10;;
4102;SDS011;2065;49.790;9.620;2023-04-25T12:24:09;3.77;;;2.90;;
4102;SDS011;2065;49.790;9.620;2023-04-25T12:26:47;3.60;;;3.30;;
4102;SDS011;2065;49.790;9.620;2023-04-25T12:29:17;3.77;;;2.90;;
4102;SDS011;2065;49.790;9.620;2023-04-25T12:31:45;5.27;;;3.47;;
4102;SDS011;2065;49.790;9.620;2023-04-25T12:34:13;7.00;;;3.80;;
4102;SDS011;2065;49.790;9.620;2023-04-25T12:36:40;5.50;;;3.97;;
4102;SDS011;2065;49.790;9.620;2023-04-25T12:39:07;4.40;;;4.00;;
4102;SDS011;2065;49.790;9.620;2023-04-25T12:41:35;5.40;;;4.87;;
4102;SDS011;2065;49.790;9.620;2023-04-25T12:44:02;6.83;;;4.13;;
4102;SDS011;2065;49.790;9.620;2023-04-25T12:46:31;3.37;;;2.93;;
4102;SDS011;2065;49.790;9.620;2023-04-25T12:48:58;8.73;;;4.00;;
4102;SDS011;2065;49.790;9.620;2023-04-25T12:51:25;7.10;;;4.70;;
4102;SDS011;2065;49.790;9.620;2023-04-25T12:53:53;9.40;;;4.43;;
4102;SDS011;2065;49.790;9.620;2023-04-25T12:56:20;4.00;;;2.63;;
4102;SDS011;2065;49.790;9.620;2023-04-25T12:58:47;5.63;;;3.63;;
4102;SDS011;2065;49.790;9.620;2023-04-25T13:01:14;9.60;;;4.30;;
4102;SDS011;2065;49.790;9.620;2023-04-25T13:03:43;9.03;;;3.37;;
4102;SDS011;2065;49.790;9.620;2023-04-25T13:06:10;6.77;;;3.63;;
4102;SDS011;2065;49.790;9.620;2023-04-25T13:08:38;4.60;;;3.30;;
4102;SDS011;2065;49.790;9.620;2023-04-25T13:11:06;5.10;;;3.33;;
4102;SDS011;2065;49.790;9.620;2023-04-25T13:13:33;6.50;;;3.50;;
4102;SDS011;2065;49.790;9.620;2023-04-25T13:16:00;9.13;;;3.40;;
4102;SDS011;2065;49.790;9.620;2023-04-25T13:18:28;4.67;;;3.47;;
4102;SDS011;2065;49.790;9.620;2023-04-25T13:20:56;3.70;;;3.10;;
4102;SDS011;2065;49.790;9.620;2023-04-25T13:23:25;3.40;;;3.00;;
4102;SDS011;2065;49.790;9.620;2023-04-25T13:25:53;3.73;;;3.20;;
4102;SDS011;2065;49.790;9.620;2023-04-25T13:28:22;3.43;;;3.10;;
4102;SDS011;2065;49.790;9.620;2023-04-25T13:30:50;4.80;;;4.30;;
4102;SDS011;2065;49.790;9.620;2023-04-25T13:33:17;3.13;;;2.83;;
4102;SDS011;2065;49.790;9.620;2023-04-25T13:35:44;7.30;;;2.97;;
4102;SDS011;2065;49.790;9.620;2023-04-25T13:38:13;3.23;;;2.90;;
4102;SDS011;2065;49.790;9.620;2023-04-25T13:40:40;4.57;;;2.93;;
4102;SDS011;2065;49.790;9.620;2023-04-25T13:43:07;7.93;;;2.83;;
4102;SDS011;2065;49.790;9.620;2023-04-25T13:45:34;5.93;;;2.63;;
4102;SDS011;2065;49.790;9.620;2023-04-25T13:48:01;2.60;;;2.40;;
4102;SDS011;2065;49.790;9.620;2023-04-25T13:50:29;5.20;;;3.10;;
4102;SDS011;2065;49.790;9.620;2023-04-25T13:52:57;5.70;;;3.50;;
4102;SDS011;2065;49.790;9.620;2023-04-25T13:55:25;5.93;;;2.33;;
4102;SDS011;2065;49.790;9.620;2023-04-25T13:57:52;3.17;;;2.87;;
4102;SDS011;2065;49.790;9.620;2023-04-25T14:00:19;5.07;;;3.03;;
4102;SDS011;2065;49.790;9.620;2023-04-25T14:02:47;5.23;;;3.50;;
4102;SDS011;2065;49.790;9.620;2023-04-25T14:05:14;3.03;;;2.80;;
4102;SDS011;2065;49.790;9.620;2023-04-25T14:07:41;2.97;;;2.27;;
4102;SDS011;2065;49.790;9.620;2023-04-25T14:10:08;5.17;;;3.67;;
4102;SDS011;2065;49.790;9.620;2023-04-25T14:12:38;3.50;;;3.20;;
4102;SDS011;2065;49.790;9.620;2023-04-25T14:15:05;3.90;;;2.70;;
4102;SDS011;2065;49.790;9.620;2023-04-25T14:17:32;3.83;;;2.77;;
4102;SDS011;2065;49.790;9.620;2023-04-25T14:19:59;6.83;;;3.10;;
4102;SDS011;2065;49.790;9.620;2023-04-25T14:22:27;4.80;;;2.80;;
4102;SDS011;2065;49.790;9.620;2023-04-25T14:24:54;2.67;;;2.43;;
4102;SDS011;2065;49.790;9.620;2023-04-25T14:27:21;3.73;;;2.90;;
4102;SDS011;2065;49.790;9.620;2023-04-25T14:29:50;3.40;;;3.10;;
4102;SDS011;2065;49.790;9.620;2023-04-25T14:32:17;3.30;;;2.97;;
4102;SDS011;2065;49.790;9.620;2023-04-25T14:34:44;7.60;;;3.03;;
4102;SDS011;2065;49.790;9.620;2023-04-25T14:37:11;3.57;;;3.00;;
4102;SDS011;2065;49.790;9.620;2023-04-25T14:39:38;6.00;;;2.53;;
4102;SDS011;2065;49.790;9.620;2023-04-25T14:42:05;4.40;;;3.10;;
4102;SDS011;2065;49.790;9.620;2023-04-25T14:44:32;6.10;;;2.93;;
4102;SDS011;2065;49.790;9.620;2023-04-25T14:47:01;4.70;;;2.80;;
4102;SDS011;2065;49.790;9.620;2023-04-25T14:49:28;2.83;;;2.57;;
4102;SDS011;2065;49.790;9.620;2023-04-25T14:51:55;3.80;;;3.30;;
4102;SDS011;2065;49.790;9.620;2023-04-25T14:54:22;6.80;;;3.00;;
4102;SDS011;2065;49.790;9.620;2023-04-25T14:56:49;2.57;;;2.37;;
4102;SDS011;2065;49.790;9.620;2023-04-25T14:59:16;3.13;;;2.50;;
4102;SDS011;2065;49.790;9.620;2023-04-25T15:01:43;5.80;;;2.90;;
4102;SDS011;2065;49.790;9.620;2023-04-25T15:04:12;3.97;;;2.90;;
4102;SDS011;2065;49.790;9.620;2023-04-25T15:06:39;5.97;;;2.70;;
4102;SDS011;2065;49.790;9.620;2023-04-25T15:09:06;6.80;;;3.20;;
4102;SDS011;2065;49.790;9.620;2023-04-25T15:11:33;5.83;;;2.60;;
4102;SDS011;2065;49.790;9.620;2023-04-25T15:14:00;4.63;;;2.37;;
4102;SDS011;2065;49.790;9.620;2023-04-25T15:16:27;4.93;;;2.33;;
4102;SDS011;2065;49.790;9.620;2023-04-25T15:18:55;6.57;;;2.60;;
4102;SDS011;2065;49.790;9.620;2023-04-25T15:21:24;5.73;;;2.83;;
4102;SDS011;2065;49.790;9.620;2023-04-25T15:23:51;3.40;;;2.60;;
4102;SDS011;2065;49.790;9.620;2023-04-25T15:26:18;3.20;;;2.73;;
4102;SDS011;2065;49.790;9.620;2023-04-25T15:28:46;3.53;;;2.70;;
4102;SDS011;2065;49.790;9.620;2023-04-25T15:31:13;3.63;;;3.27;;
4102;SDS011;2065;49.790;9.620;2023-04-25T15:33:40;6.80;;;3.20;;
4102;SDS011;2065;49.790;9.620;2023-04-25T15:36:08;5.37;;;3.43;;
4102;SDS011;2065;49.790;9.620;2023-04-25T15:38:37;3.83;;;2.80;;
4102;SDS011;2065;49.790;9.620;2023-04-25T15:41:04;6.30;;;3.60;;